createdAt,value
2024-02-29T00:00:35.800Z,25.35
2024-02-29T00:03:02.268Z,27.88
2024-02-29T00:05:28.659Z,30.13
2024-02-29T00:07:55.121Z,34.75
2024-02-29T00:10:22.059Z,24.77
2024-02-29T00:12:48.483Z,29.08
2024-02-29T00:15:14.979Z,26.10
2024-02-29T00:17:42.076Z,25.23
2024-02-29T00:20:10.363Z,33.03
2024-02-29T00:22:37.486Z,22.15
2024-02-29T00:25:04.187Z,24.02
2024-02-29T00:27:31.980Z,23.05
2024-02-29T00:29:58.644Z,22.73
2024-02-29T00:32:25.162Z,22.13
2024-02-29T00:34:51.591Z,23.80
2024-02-29T00:37:18.082Z,23.35
2024-02-29T00:39:44.570Z,24.80
2024-02-29T00:42:10.989Z,23.80
2024-02-29T00:44:37.508Z,26.25
2024-02-29T00:47:03.952Z,24.17
2024-02-29T00:49:30.437Z,28.63
2024-02-29T00:51:56.904Z,23.48
2024-02-29T00:54:26.319Z,23.95
2024-02-29T00:56:52.809Z,26.48
2024-02-29T00:59:19.353Z,22.88
2024-02-29T01:01:45.948Z,30.42
2024-02-29T01:04:12.447Z,26.55
2024-02-29T01:06:38.920Z,24.23
2024-02-29T01:09:05.531Z,26.48
2024-02-29T01:11:32.588Z,27.48
2024-02-29T01:13:59.014Z,25.95
2024-02-29T01:16:25.432Z,25.73
2024-02-29T01:18:51.902Z,28.27
2024-02-29T01:21:18.507Z,25.52
2024-02-29T01:23:44.947Z,27.63
2024-02-29T01:26:11.869Z,23.10
2024-02-29T01:28:38.418Z,25.85
2024-02-29T01:31:05.155Z,30.30
2024-02-29T01:33:32.084Z,26.48
2024-02-29T01:35:58.552Z,27.23
2024-02-29T01:38:24.965Z,28.55
2024-02-29T01:40:51.428Z,26.08
2024-02-29T01:43:17.927Z,33.90
2024-02-29T01:45:44.509Z,27.05
2024-02-29T01:48:12.810Z,25.27
2024-02-29T01:50:39.818Z,28.20
2024-02-29T01:53:06.747Z,26.90
2024-02-29T01:55:33.318Z,29.45
2024-02-29T01:57:59.832Z,27.60
2024-02-29T02:00:26.362Z,26.60
2024-02-29T02:02:53.520Z,25.75
2024-02-29T02:05:20.791Z,27.00
2024-02-29T02:07:47.925Z,27.23
2024-02-29T02:10:14.376Z,24.10
2024-02-29T02:12:40.949Z,27.08
2024-02-29T02:15:08.128Z,27.90
2024-02-29T02:17:34.878Z,26.17
2024-02-29T02:20:01.903Z,29.27
2024-02-29T02:22:29.717Z,29.92
2024-02-29T02:24:56.712Z,30.35
2024-02-29T02:27:23.219Z,29.73
2024-02-29T02:29:49.627Z,24.88
2024-02-29T02:32:16.062Z,28.20
2024-02-29T02:34:42.461Z,28.73
2024-02-29T02:37:09.011Z,25.85
2024-02-29T02:39:35.550Z,28.33
2024-02-29T02:42:02.321Z,29.35
2024-02-29T02:44:28.747Z,27.55
2024-02-29T02:46:55.157Z,29.17
2024-02-29T02:49:21.761Z,26.58
2024-02-29T02:51:48.356Z,25.52
2024-02-29T02:54:14.883Z,27.40
2024-02-29T02:56:41.302Z,25.85
2024-02-29T02:59:07.699Z,26.95
2024-02-29T03:01:34.157Z,25.58
2024-02-29T03:04:00.832Z,27.00
2024-02-29T03:06:27.371Z,28.30
2024-02-29T03:08:53.823Z,26.95
2024-02-29T03:11:20.296Z,27.83
2024-02-29T03:13:46.763Z,25.67
2024-02-29T03:16:20.592Z,24.65
2024-02-29T03:18:47.214Z,28.58
2024-02-29T03:21:15.623Z,29.80
2024-02-29T03:23:42.272Z,28.17
2024-02-29T03:26:08.758Z,27.73
2024-02-29T03:28:35.201Z,28.45
2024-02-29T03:31:01.864Z,31.67
2024-02-29T03:33:28.328Z,29.55
2024-02-29T03:35:54.835Z,27.85
2024-02-29T03:38:22.412Z,24.58
2024-02-29T03:40:50.554Z,32.67
2024-02-29T03:43:17.046Z,27.00
2024-02-29T03:45:43.496Z,28.00
2024-02-29T03:48:10.045Z,33.80
2024-02-29T03:50:36.469Z,27.75
2024-02-29T03:53:02.988Z,28.63
2024-02-29T03:55:29.437Z,34.33
2024-02-29T03:57:55.992Z,33.35
2024-02-29T04:00:22.651Z,28.75
2024-02-29T04:02:49.100Z,25.45
2024-02-29T04:05:15.629Z,30.95
2024-02-29T04:07:42.907Z,27.05
2024-02-29T04:10:11.878Z,32.20
2024-02-29T04:12:38.622Z,36.42
2024-02-29T04:15:05.532Z,27.63
2024-02-29T04:17:33.141Z,26.10
2024-02-29T04:19:59.627Z,27.40
2024-02-29T04:22:26.070Z,25.27
2024-02-29T04:24:52.554Z,27.13
2024-02-29T04:27:19.556Z,26.17
2024-02-29T04:29:47.234Z,27.70
2024-02-29T04:32:13.743Z,28.60
2024-02-29T04:34:40.291Z,31.35
2024-02-29T04:37:06.763Z,29.92
2024-02-29T04:39:33.342Z,30.05
2024-02-29T04:41:59.793Z,27.00
2024-02-29T04:44:26.247Z,26.00
2024-02-29T04:46:53.013Z,25.25
2024-02-29T04:49:19.853Z,29.08
2024-02-29T04:51:46.350Z,28.52
2024-02-29T04:54:12.805Z,26.15
2024-02-29T04:56:39.917Z,27.13
2024-02-29T04:59:08.279Z,26.77
2024-02-29T05:01:34.913Z,27.17
2024-02-29T05:04:01.533Z,31.92
2024-02-29T05:06:29.094Z,29.95
2024-02-29T05:08:56.188Z,32.92
2024-02-29T05:11:22.702Z,25.77
2024-02-29T05:13:50.126Z,27.40
2024-02-29T05:16:18.340Z,31.60
2024-02-29T05:18:45.311Z,31.02
2024-02-29T05:21:11.754Z,24.17
2024-02-29T05:23:38.284Z,29.67
2024-02-29T05:26:05.740Z,29.40
2024-02-29T05:28:32.373Z,33.67
2024-02-29T05:30:59.977Z,30.55
2024-02-29T05:33:27.200Z,33.85
2024-02-29T05:35:53.618Z,34.30
2024-02-29T05:38:20.070Z,29.20
2024-02-29T05:40:48.274Z,30.00
2024-02-29T05:43:18.523Z,33.60
2024-02-29T05:45:45.056Z,32.58
2024-02-29T05:48:11.594Z,32.33
2024-02-29T05:50:38.101Z,28.70
2024-02-29T05:53:05.281Z,31.88
2024-02-29T05:55:32.463Z,33.33
2024-02-29T05:57:59.068Z,32.90
2024-02-29T06:00:25.590Z,32.67
2024-02-29T06:02:53.170Z,34.78
2024-02-29T06:05:20.916Z,30.45
2024-02-29T06:07:47.476Z,32.85
2024-02-29T06:10:14.052Z,35.05
2024-02-29T06:12:40.850Z,37.63
2024-02-29T06:15:11.108Z,39.63
2024-02-29T06:17:39.127Z,36.33
2024-02-29T06:20:11.448Z,33.58
2024-02-29T06:22:40.664Z,32.65
2024-02-29T06:25:09.870Z,36.72
2024-02-29T06:27:37.416Z,34.47
2024-02-29T06:30:05.407Z,34.13
2024-02-29T06:32:31.881Z,34.20
2024-02-29T06:34:58.338Z,33.88
2024-02-29T06:37:24.857Z,32.38
2024-02-29T06:39:51.325Z,32.05
2024-02-29T06:42:17.729Z,40.38
2024-02-29T06:44:44.158Z,38.35
2024-02-29T06:47:10.650Z,35.13
2024-02-29T06:49:37.291Z,32.53
2024-02-29T06:52:03.761Z,34.70
2024-02-29T06:54:30.275Z,34.03
2024-02-29T06:56:56.736Z,31.60
2024-02-29T06:59:23.266Z,38.00
2024-02-29T07:01:49.839Z,30.85
2024-02-29T07:04:16.568Z,32.42
2024-02-29T07:06:43.157Z,31.27
2024-02-29T07:09:09.577Z,33.35
2024-02-29T07:11:36.073Z,31.13
2024-02-29T07:14:02.511Z,27.88
2024-02-29T07:16:28.983Z,30.73
2024-02-29T07:18:55.506Z,27.85
2024-02-29T07:21:22.079Z,28.52
2024-02-29T07:23:48.632Z,36.83
2024-02-29T07:26:15.065Z,33.67
2024-02-29T07:28:41.496Z,32.58
2024-02-29T07:31:07.968Z,30.70
2024-02-29T07:33:36.400Z,28.75
2024-02-29T07:36:03.160Z,32.95
2024-02-29T07:38:29.775Z,30.45
2024-02-29T07:40:56.247Z,30.42
2024-02-29T07:43:23.385Z,28.90
2024-02-29T07:45:49.982Z,25.85
2024-02-29T07:48:16.574Z,28.45
2024-02-29T07:50:43.184Z,27.88
2024-02-29T07:53:09.750Z,30.50
2024-02-29T07:55:36.561Z,32.00
2024-02-29T07:58:04.521Z,29.42
2024-02-29T08:00:31.079Z,23.25
2024-02-29T08:02:57.483Z,28.85
2024-02-29T08:05:24.313Z,27.95
2024-02-29T08:07:50.738Z,28.40
2024-02-29T08:10:17.643Z,26.98
2024-02-29T08:12:47.541Z,26.25
2024-02-29T08:15:14.922Z,26.33
2024-02-29T08:17:41.634Z,25.55
2024-02-29T08:20:09.246Z,27.88
2024-02-29T08:22:36.641Z,27.00
2024-02-29T08:25:03.709Z,29.27
2024-02-29T08:27:30.313Z,23.40
2024-02-29T08:29:57.044Z,25.60
2024-02-29T08:32:23.477Z,23.08
2024-02-29T08:34:49.934Z,22.05
2024-02-29T08:37:16.557Z,21.45
2024-02-29T08:39:43.037Z,19.05
2024-02-29T08:42:10.945Z,19.95
2024-02-29T08:44:37.649Z,18.08
2024-02-29T08:47:05.794Z,17.80
2024-02-29T08:51:58.682Z,20.30
2024-02-29T08:54:25.144Z,17.58
2024-02-29T08:56:51.652Z,17.10
2024-02-29T08:59:18.937Z,19.05
2024-02-29T09:01:45.582Z,17.50
2024-02-29T09:04:12.151Z,17.23
2024-02-29T09:06:41.746Z,16.75
2024-02-29T09:09:08.889Z,18.65
2024-02-29T09:11:35.504Z,16.73
2024-02-29T09:14:02.150Z,14.45
2024-02-29T09:16:28.657Z,18.98
2024-02-29T09:18:55.188Z,15.68
2024-02-29T09:21:21.677Z,15.57
2024-02-29T09:23:50.686Z,18.20
2024-02-29T09:26:19.242Z,16.58
2024-02-29T09:28:46.015Z,18.67
2024-02-29T09:31:13.538Z,17.85
2024-02-29T09:33:41.169Z,18.15
2024-02-29T09:36:11.661Z,18.20
2024-02-29T09:38:41.540Z,15.80
2024-02-29T09:41:25.163Z,16.70
2024-02-29T09:43:59.633Z,18.63
2024-02-29T09:46:26.141Z,17.50
2024-02-29T09:48:53.409Z,17.20
2024-02-29T09:51:23.157Z,16.85
2024-02-29T09:53:54.385Z,18.05
2024-02-29T09:56:25.776Z,18.13
2024-02-29T09:58:52.818Z,16.58
2024-02-29T10:01:20.010Z,20.75
2024-02-29T10:03:47.624Z,19.77
2024-02-29T10:06:14.676Z,17.05
2024-02-29T10:08:41.134Z,18.17
2024-02-29T10:11:10.974Z,19.17
2024-02-29T10:13:41.542Z,19.95
2024-02-29T10:16:09.590Z,18.30
2024-02-29T10:18:37.822Z,21.77
2024-02-29T10:21:15.990Z,19.63
2024-02-29T10:23:43.457Z,18.95
2024-02-29T10:26:10.376Z,16.45
2024-02-29T10:28:37.037Z,15.70
2024-02-29T10:31:04.144Z,19.13
2024-02-29T10:33:30.808Z,23.15
2024-02-29T10:35:57.624Z,19.35
2024-02-29T10:38:24.593Z,20.33
2024-02-29T10:40:53.595Z,19.15
2024-02-29T10:43:23.677Z,18.00
2024-02-29T10:45:51.999Z,17.42
2024-02-29T10:48:36.559Z,16.38
2024-02-29T10:51:17.038Z,16.58
2024-02-29T10:54:05.472Z,17.05
2024-02-29T10:56:33.893Z,16.83
2024-02-29T10:59:06.494Z,16.40
2024-02-29T11:01:33.833Z,15.40
2024-02-29T11:04:00.817Z,13.85
2024-02-29T11:06:34.148Z,13.55
2024-02-29T11:09:02.756Z,17.05
2024-02-29T11:11:29.566Z,15.68
2024-02-29T11:14:05.494Z,16.65
2024-02-29T11:19:04.715Z,14.13
2024-02-29T11:21:31.581Z,16.63
2024-02-29T11:24:04.100Z,16.45
2024-02-29T11:26:38.263Z,15.32
2024-02-29T11:29:20.178Z,15.93
2024-02-29T11:31:50.586Z,15.25
2024-02-29T11:34:18.575Z,15.27
2024-02-29T11:36:49.129Z,16.10
2024-02-29T11:39:18.513Z,17.42
2024-02-29T11:41:45.301Z,16.25
2024-02-29T11:44:11.714Z,17.85
2024-02-29T11:46:48.372Z,16.88
2024-02-29T11:49:16.265Z,16.45
2024-02-29T11:51:46.384Z,16.58
2024-02-29T11:54:17.399Z,15.20
2024-02-29T11:56:43.936Z,14.60
2024-02-29T11:59:12.120Z,14.38
2024-02-29T12:01:38.897Z,18.77
2024-02-29T12:04:08.149Z,16.40
2024-02-29T12:06:36.587Z,14.95
2024-02-29T12:09:03.730Z,14.65
2024-02-29T12:11:32.633Z,14.93
2024-02-29T12:13:59.237Z,18.63
2024-02-29T12:16:25.923Z,16.85
2024-02-29T12:18:52.909Z,18.35
2024-02-29T12:21:19.907Z,18.90
2024-02-29T12:23:46.332Z,16.70
2024-02-29T12:26:14.601Z,17.27
2024-02-29T12:28:41.765Z,17.25
2024-02-29T12:31:09.416Z,15.50
2024-02-29T12:33:40.323Z,16.17
2024-02-29T12:36:07.996Z,15.00
2024-02-29T12:38:35.257Z,15.98
2024-02-29T12:41:06.749Z,15.63
2024-02-29T12:43:34.268Z,17.80
2024-02-29T12:46:00.714Z,17.15
2024-02-29T12:48:27.170Z,17.60
2024-02-29T12:50:54.072Z,16.52
2024-02-29T12:53:20.606Z,19.90
2024-02-29T12:55:48.431Z,20.85
2024-02-29T12:58:15.664Z,19.65
2024-02-29T13:00:42.378Z,16.77
2024-02-29T13:03:09.552Z,17.40
2024-02-29T13:05:36.755Z,19.02
2024-02-29T13:08:06.353Z,20.92
2024-02-29T13:10:32.860Z,22.67
2024-02-29T13:13:06.019Z,21.52
2024-02-29T13:15:36.343Z,21.27
2024-02-29T13:18:02.841Z,20.70
2024-02-29T13:20:29.278Z,18.67
2024-02-29T13:22:55.732Z,17.48
2024-02-29T13:25:22.333Z,17.33
2024-02-29T13:27:48.911Z,21.30
2024-02-29T13:30:15.504Z,17.92
2024-02-29T13:32:41.969Z,18.25
2024-02-29T13:35:08.474Z,21.52
2024-02-29T13:37:35.262Z,19.17
2024-02-29T13:40:01.862Z,22.10
2024-02-29T13:42:28.296Z,19.08
2024-02-29T13:44:54.722Z,19.38
2024-02-29T13:47:21.123Z,18.50
2024-02-29T13:49:47.597Z,18.17
2024-02-29T13:52:18.486Z,21.20
2024-02-29T13:54:46.315Z,17.40
2024-02-29T13:57:13.225Z,21.83
2024-02-29T13:59:39.753Z,21.20
2024-02-29T14:02:09.197Z,19.02
2024-02-29T14:04:35.655Z,18.50
2024-02-29T14:07:02.184Z,24.30
2024-02-29T14:09:28.628Z,19.88
2024-02-29T14:11:55.218Z,20.08
2024-02-29T14:14:21.648Z,20.55
2024-02-29T14:16:48.221Z,18.20
2024-02-29T14:19:14.724Z,18.08
2024-02-29T14:21:41.177Z,18.38
2024-02-29T14:24:07.649Z,20.02
2024-02-29T14:26:34.417Z,16.33
2024-02-29T14:29:00.853Z,16.88
2024-02-29T14:31:28.006Z,15.38
2024-02-29T14:33:55.684Z,17.73
2024-02-29T14:36:22.210Z,16.10
2024-02-29T14:38:51.098Z,17.33
2024-02-29T14:41:18.261Z,14.40
2024-02-29T14:43:44.689Z,19.25
2024-02-29T14:46:11.154Z,18.35
2024-02-29T14:48:37.691Z,21.05
2024-02-29T14:51:04.121Z,19.98
2024-02-29T14:53:30.526Z,20.85
2024-02-29T14:55:57.021Z,17.50
2024-02-29T14:58:24.265Z,17.48
2024-02-29T15:00:51.542Z,18.25
2024-02-29T15:03:18.187Z,19.17
2024-02-29T15:05:44.693Z,16.48
2024-02-29T15:08:11.953Z,19.23
2024-02-29T15:10:38.402Z,20.55
2024-02-29T15:13:05.023Z,17.38
2024-02-29T15:15:31.571Z,16.42
2024-02-29T15:17:58.061Z,17.65
2024-02-29T15:20:24.529Z,19.67
2024-02-29T15:22:51.018Z,17.83
2024-02-29T15:25:17.964Z,20.00
2024-02-29T15:27:47.148Z,19.58
2024-02-29T15:30:14.066Z,20.35
2024-02-29T15:32:40.707Z,18.60
2024-02-29T15:35:07.956Z,20.40
2024-02-29T15:37:34.865Z,17.77
2024-02-29T15:40:01.464Z,18.95
2024-02-29T15:42:28.034Z,19.02
2024-02-29T15:44:54.611Z,16.73
2024-02-29T15:47:21.297Z,19.15
2024-02-29T15:49:49.377Z,22.50
2024-02-29T15:52:17.865Z,20.35
2024-02-29T15:54:44.658Z,21.35
2024-02-29T15:57:12.649Z,18.67
2024-02-29T15:59:40.181Z,22.05
2024-02-29T16:02:07.365Z,21.10
2024-02-29T16:04:33.967Z,19.90
2024-02-29T16:07:00.593Z,22.17
2024-02-29T16:09:27.367Z,19.10
2024-02-29T16:11:54.087Z,24.25
2024-02-29T16:14:20.614Z,20.30
2024-02-29T16:16:47.936Z,18.98
2024-02-29T16:19:16.770Z,21.13
2024-02-29T16:21:43.300Z,26.70
2024-02-29T16:24:10.262Z,20.65
2024-02-29T16:26:37.242Z,25.98
2024-02-29T16:29:03.945Z,23.92
2024-02-29T16:31:30.672Z,25.05
2024-02-29T16:33:57.294Z,21.35
2024-02-29T16:36:23.813Z,22.45
2024-02-29T16:38:50.404Z,28.38
2024-02-29T16:41:16.817Z,28.10
2024-02-29T16:43:43.489Z,23.45
2024-02-29T16:46:10.242Z,25.80
2024-02-29T16:48:38.349Z,27.60
2024-02-29T16:51:05.593Z,27.35
2024-02-29T16:53:32.361Z,26.70
2024-02-29T16:55:59.935Z,23.13
2024-02-29T16:58:26.948Z,26.27
2024-02-29T17:00:55.417Z,25.83
2024-02-29T17:03:22.060Z,25.20
2024-02-29T17:05:48.478Z,27.55
2024-02-29T17:08:14.956Z,24.50
2024-02-29T17:10:42.053Z,27.35
2024-02-29T17:13:08.543Z,26.20
2024-02-29T17:15:38.218Z,27.88
2024-02-29T17:18:05.058Z,23.50
2024-02-29T17:20:31.546Z,27.80
2024-02-29T17:22:57.987Z,26.02
2024-02-29T17:25:24.590Z,26.75
2024-02-29T17:27:52.786Z,25.30
2024-02-29T17:30:20.550Z,27.15
2024-02-29T17:32:48.597Z,23.45
2024-02-29T17:35:17.088Z,26.35
2024-02-29T17:37:44.867Z,25.85
2024-02-29T17:40:11.898Z,24.23
2024-02-29T17:42:38.445Z,23.60
2024-02-29T17:45:05.677Z,21.77
2024-02-29T17:47:32.301Z,21.80
2024-02-29T17:49:58.925Z,23.38
2024-02-29T17:52:26.295Z,23.63
2024-02-29T17:54:53.347Z,22.48
2024-02-29T17:57:19.931Z,26.05
2024-02-29T17:59:46.380Z,24.13
2024-02-29T18:02:12.909Z,22.25
2024-02-29T18:04:39.704Z,19.85
2024-02-29T18:07:06.265Z,21.80
2024-02-29T18:09:33.180Z,21.42
2024-02-29T18:11:59.658Z,27.65
2024-02-29T18:14:26.284Z,22.20
2024-02-29T18:16:53.097Z,28.67
2024-02-29T18:19:19.616Z,25.73
2024-02-29T18:21:47.332Z,21.45
2024-02-29T18:24:13.828Z,27.13
2024-02-29T18:26:40.979Z,24.30
2024-02-29T18:29:07.566Z,28.50
2024-02-29T18:31:34.178Z,25.70
2024-02-29T18:34:00.704Z,32.60
2024-02-29T18:36:27.133Z,26.67
2024-02-29T18:38:53.564Z,28.60
2024-02-29T18:41:20.670Z,28.27
2024-02-29T18:43:47.368Z,28.20
2024-02-29T18:46:13.984Z,27.13
2024-02-29T18:48:40.628Z,25.25
2024-02-29T18:51:09.547Z,25.67
2024-02-29T18:53:35.971Z,27.63
2024-02-29T18:56:02.380Z,29.05
2024-02-29T18:58:31.206Z,24.73
2024-02-29T19:00:57.926Z,28.60
2024-02-29T19:03:24.691Z,23.58
2024-02-29T19:05:52.933Z,26.83
2024-02-29T19:08:21.461Z,29.52
2024-02-29T19:10:47.997Z,32.78
2024-02-29T19:13:14.555Z,29.40
2024-02-29T19:15:41.056Z,31.27
2024-02-29T19:20:34.260Z,29.15
2024-02-29T19:23:00.746Z,31.33
2024-02-29T19:25:27.595Z,31.67
2024-02-29T19:27:54.177Z,30.83
2024-02-29T19:30:23.189Z,28.85
2024-02-29T19:32:49.955Z,27.25
2024-02-29T19:35:16.443Z,27.70
2024-02-29T19:37:42.978Z,31.75
2024-02-29T19:40:09.666Z,29.00
2024-02-29T19:42:36.177Z,30.38
2024-02-29T19:45:04.817Z,33.05
2024-02-29T19:47:31.438Z,29.85
2024-02-29T19:49:57.914Z,28.70
2024-02-29T19:52:24.427Z,32.55
2024-02-29T19:54:52.860Z,34.75
2024-02-29T19:57:19.368Z,30.70
2024-02-29T19:59:45.817Z,31.42
2024-02-29T20:02:12.365Z,29.88
2024-02-29T20:04:38.982Z,28.83
2024-02-29T20:07:05.586Z,32.55
2024-02-29T20:09:32.788Z,33.40
2024-02-29T20:11:59.297Z,34.30
2024-02-29T20:14:25.874Z,32.80
2024-02-29T20:16:52.437Z,34.80
2024-02-29T20:19:18.977Z,30.98
2024-02-29T20:21:46.073Z,28.23
2024-02-29T20:24:13.981Z,33.25
2024-02-29T20:26:40.486Z,31.45
2024-02-29T20:29:06.967Z,32.80
2024-02-29T20:31:33.416Z,34.20
2024-02-29T20:33:59.932Z,32.72
2024-02-29T20:36:26.372Z,36.90
2024-02-29T20:38:52.782Z,27.60
2024-02-29T20:41:19.344Z,26.90
2024-02-29T20:43:45.775Z,30.70
2024-02-29T20:46:16.885Z,32.78
2024-02-29T20:48:45.646Z,33.05
2024-02-29T20:51:12.594Z,33.80
2024-02-29T20:53:39.097Z,28.25
2024-02-29T20:56:05.973Z,32.80
2024-02-29T20:58:32.447Z,30.17
2024-02-29T21:00:59.952Z,38.25
2024-02-29T21:03:26.748Z,35.20
2024-02-29T21:05:53.261Z,34.75
2024-02-29T21:08:19.676Z,33.00
2024-02-29T21:10:47.052Z,32.53
2024-02-29T21:13:13.786Z,33.33
2024-02-29T21:15:40.455Z,33.33
2024-02-29T21:18:07.741Z,32.28
2024-02-29T21:20:35.155Z,34.35
2024-02-29T21:23:01.783Z,31.17
2024-02-29T21:25:28.401Z,36.60
2024-02-29T21:27:54.981Z,35.10
2024-02-29T21:30:21.416Z,37.85
2024-02-29T21:32:49.945Z,36.67
2024-02-29T21:35:20.395Z,36.35
2024-02-29T21:37:47.291Z,37.83
2024-02-29T21:40:14.316Z,36.40
2024-02-29T21:42:40.823Z,34.70
2024-02-29T21:45:07.787Z,37.38
2024-02-29T21:47:34.300Z,39.15
2024-02-29T21:50:00.758Z,37.95
2024-02-29T21:52:27.231Z,40.03
2024-02-29T21:54:53.677Z,41.60
2024-02-29T21:57:20.143Z,36.55
2024-02-29T21:59:46.661Z,38.03
2024-02-29T22:02:14.215Z,38.75
2024-02-29T22:04:41.407Z,40.95
2024-02-29T22:07:07.991Z,42.20
2024-02-29T22:09:34.660Z,36.35
2024-02-29T22:12:01.137Z,37.22
2024-02-29T22:14:27.991Z,44.05
2024-02-29T22:16:54.394Z,37.78
2024-02-29T22:19:20.915Z,34.63
2024-02-29T22:21:47.410Z,37.67
2024-02-29T22:24:16.695Z,40.70
2024-02-29T22:26:43.529Z,38.72
2024-02-29T22:29:11.600Z,36.80
2024-02-29T22:31:40.911Z,44.00
2024-02-29T22:34:07.514Z,39.20
2024-02-29T22:36:34.075Z,39.55
2024-02-29T22:39:00.562Z,43.25
2024-02-29T22:41:26.985Z,42.15
2024-02-29T22:43:53.440Z,42.10
2024-02-29T22:46:19.945Z,48.75
2024-02-29T22:48:46.561Z,40.85
2024-02-29T22:51:12.980Z,38.85
2024-02-29T22:53:39.425Z,42.17
2024-02-29T22:56:06.351Z,43.15
2024-02-29T22:58:32.865Z,42.50
2024-02-29T23:00:59.718Z,41.58
2024-02-29T23:03:26.174Z,34.97
2024-02-29T23:05:52.597Z,41.75
2024-02-29T23:08:19.008Z,47.50
2024-02-29T23:10:45.574Z,42.85
2024-02-29T23:13:13.174Z,45.72
2024-02-29T23:15:39.759Z,41.28
2024-02-29T23:18:06.538Z,42.33
2024-02-29T23:20:33.049Z,47.05
2024-02-29T23:23:01.295Z,40.95
2024-02-29T23:25:28.019Z,41.38
2024-02-29T23:27:54.661Z,42.55
2024-02-29T23:30:21.376Z,43.58
2024-02-29T23:32:47.793Z,38.95
2024-02-29T23:35:14.416Z,41.08
2024-02-29T23:37:41.081Z,38.28
2024-02-29T23:40:08.609Z,40.72
2024-02-29T23:42:35.178Z,41.67
2024-02-29T23:45:01.628Z,39.35
2024-02-29T23:47:28.133Z,40.65
2024-02-29T23:49:54.564Z,39.75
2024-02-29T23:52:21.011Z,42.60
2024-02-29T23:54:47.591Z,43.13
2024-02-29T23:57:14.051Z,44.35
2024-02-29T23:59:40.490Z,37.70
